sensor_id;sensor_type;location;lat;lon;timestamp;P1;durP1;ratioP1;P2;durP2;ratioP2
40339;SDS011;26044;50.864;20.658;2022-10-26T00:00:07;34.28;;;17.25;;
40339;SDS011;26044;50.864;20.658;2022-10-26T00:02:34;35.25;;;19.33;;
40339;SDS011;26044;50.864;20.658;2022-10-26T00:05:08;37.38;;;19.42;;
40339;SDS011;26044;50.864;20.658;2022-10-26T00:07:38;34.15;;;18.02;;
40339;SDS011;26044;50.864;20.658;2022-10-26T00:10:10;37.47;;;18.77;;
40339;SDS011;26044;50.864;20.658;2022-10-26T00:12:40;34.08;;;18.13;;
40339;SDS011;26044;50.864;20.658;2022-10-26T00:15:07;31.92;;;17.52;;
40339;SDS011;26044;50.864;20.658;2022-10-26T00:17:34;34.50;;;17.73;;
40339;SDS011;26044;50.864;20.658;2022-10-26T00:20:02;34.33;;;19.55;;
40339;SDS011;26044;50.864;20.658;2022-10-26T00:22:30;33.00;;;18.17;;
40339;SDS011;26044;50.864;20.658;2022-10-26T00:24:58;37.85;;;19.02;;
40339;SDS011;26044;50.864;20.658;2022-10-26T00:27:25;38.60;;;19.88;;
40339;SDS011;26044;50.864;20.658;2022-10-26T00:29:53;36.85;;;20.52;;
40339;SDS011;26044;50.864;20.658;2022-10-26T00:32:20;35.38;;;18.60;;
40339;SDS011;26044;50.864;20.658;2022-10-26T00:34:47;36.67;;;19.83;;
40339;SDS011;26044;50.864;20.658;2022-10-26T00:37:15;36.05;;;20.38;;
40339;SDS011;26044;50.864;20.658;2022-10-26T00:39:44;37.08;;;20.30;;
40339;SDS011;26044;50.864;20.658;2022-10-26T00:42:18;40.53;;;21.50;;
40339;SDS011;26044;50.864;20.658;2022-10-26T00:47:22;40.45;;;21.20;;
40339;SDS011;26044;50.864;20.658;2022-10-26T00:49:50;34.22;;;19.67;;
40339;SDS011;26044;50.864;20.658;2022-10-26T00:52:19;39.53;;;20.67;;
40339;SDS011;26044;50.864;20.658;2022-10-26T00:54:50;33.67;;;19.58;;
40339;SDS011;26044;50.864;20.658;2022-10-26T00:57:19;37.60;;;20.30;;
40339;SDS011;26044;50.864;20.658;2022-10-26T00:59:46;32.75;;;17.75;;
40339;SDS011;26044;50.864;20.658;2022-10-26T01:04:53;36.03;;;18.65;;
40339;SDS011;26044;50.864;20.658;2022-10-26T01:07:31;38.97;;;19.35;;
40339;SDS011;26044;50.864;20.658;2022-10-26T01:10:00;36.75;;;19.95;;
40339;SDS011;26044;50.864;20.658;2022-10-26T01:12:31;36.85;;;19.65;;
40339;SDS011;26044;50.864;20.658;2022-10-26T01:14:59;37.80;;;18.77;;
40339;SDS011;26044;50.864;20.658;2022-10-26T01:17:31;34.97;;;18.67;;
40339;SDS011;26044;50.864;20.658;2022-10-26T01:22:56;42.53;;;19.88;;
40339;SDS011;26044;50.864;20.658;2022-10-26T01:28:31;39.67;;;19.48;;
40339;SDS011;26044;50.864;20.658;2022-10-26T01:30:59;52.97;;;21.45;;
40339;SDS011;26044;50.864;20.658;2022-10-26T01:33:29;37.33;;;19.42;;
40339;SDS011;26044;50.864;20.658;2022-10-26T01:44:00;42.88;;;19.10;;
40339;SDS011;26044;50.864;20.658;2022-10-26T01:46:29;42.75;;;18.70;;
40339;SDS011;26044;50.864;20.658;2022-10-26T01:48:58;45.88;;;17.45;;
40339;SDS011;26044;50.864;20.658;2022-10-26T01:51:27;34.60;;;16.98;;
40339;SDS011;26044;50.864;20.658;2022-10-26T01:54:03;32.40;;;16.23;;
40339;SDS011;26044;50.864;20.658;2022-10-26T01:56:32;34.80;;;17.13;;
40339;SDS011;26044;50.864;20.658;2022-10-26T01:59:18;37.25;;;17.52;;
40339;SDS011;26044;50.864;20.658;2022-10-26T02:15:21;39.22;;;16.08;;
40339;SDS011;26044;50.864;20.658;2022-10-26T02:17:58;39.72;;;17.08;;
40339;SDS011;26044;50.864;20.658;2022-10-26T02:20:27;46.33;;;17.05;;
40339;SDS011;26044;50.864;20.658;2022-10-26T02:22:59;34.72;;;14.90;;
40339;SDS011;26044;50.864;20.658;2022-10-26T02:25:29;37.63;;;14.32;;
40339;SDS011;26044;50.864;20.658;2022-10-26T02:27:58;38.47;;;15.10;;
40339;SDS011;26044;50.864;20.658;2022-10-26T02:30:27;39.42;;;15.35;;
40339;SDS011;26044;50.864;20.658;2022-10-26T02:32:55;36.75;;;15.35;;
40339;SDS011;26044;50.864;20.658;2022-10-26T02:35:25;36.42;;;14.40;;
40339;SDS011;26044;50.864;20.658;2022-10-26T02:37:54;45.65;;;17.05;;
40339;SDS011;26044;50.864;20.658;2022-10-26T02:40:23;34.70;;;14.93;;
40339;SDS011;26044;50.864;20.658;2022-10-26T02:42:52;40.67;;;14.85;;
40339;SDS011;26044;50.864;20.658;2022-10-26T02:45:25;36.53;;;14.40;;
40339;SDS011;26044;50.864;20.658;2022-10-26T02:47:52;41.40;;;14.73;;
40339;SDS011;26044;50.864;20.658;2022-10-26T02:50:23;35.47;;;14.65;;
40339;SDS011;26044;50.864;20.658;2022-10-26T02:55:24;41.75;;;15.82;;
40339;SDS011;26044;50.864;20.658;2022-10-26T02:57:57;39.10;;;14.90;;
40339;SDS011;26044;50.864;20.658;2022-10-26T03:00:31;34.30;;;16.40;;
40339;SDS011;26044;50.864;20.658;2022-10-26T03:03:01;44.33;;;18.35;;
40339;SDS011;26044;50.864;20.658;2022-10-26T03:05:30;40.35;;;15.15;;
40339;SDS011;26044;50.864;20.658;2022-10-26T03:07:58;35.42;;;15.45;;
40339;SDS011;26044;50.864;20.658;2022-10-26T03:10:25;35.50;;;14.77;;
40339;SDS011;26044;50.864;20.658;2022-10-26T03:12:53;38.65;;;14.30;;
40339;SDS011;26044;50.864;20.658;2022-10-26T03:15:20;34.45;;;14.02;;
40339;SDS011;26044;50.864;20.658;2022-10-26T03:17:47;30.15;;;14.68;;
40339;SDS011;26044;50.864;20.658;2022-10-26T03:20:15;35.85;;;14.40;;
40339;SDS011;26044;50.864;20.658;2022-10-26T03:22:46;31.70;;;14.63;;
40339;SDS011;26044;50.864;20.658;2022-10-26T03:25:14;34.00;;;14.77;;
40339;SDS011;26044;50.864;20.658;2022-10-26T03:27:42;35.63;;;13.38;;
40339;SDS011;26044;50.864;20.658;2022-10-26T03:30:09;33.17;;;14.10;;
40339;SDS011;26044;50.864;20.658;2022-10-26T03:32:37;36.63;;;15.40;;
40339;SDS011;26044;50.864;20.658;2022-10-26T03:35:04;31.80;;;14.25;;
40339;SDS011;26044;50.864;20.658;2022-10-26T03:37:31;35.08;;;14.82;;
40339;SDS011;26044;50.864;20.658;2022-10-26T03:39:58;33.05;;;13.93;;
40339;SDS011;26044;50.864;20.658;2022-10-26T03:42:32;33.28;;;14.80;;
40339;SDS011;26044;50.864;20.658;2022-10-26T03:44:59;33.60;;;14.85;;
40339;SDS011;26044;50.864;20.658;2022-10-26T03:47:30;36.75;;;16.05;;
40339;SDS011;26044;50.864;20.658;2022-10-26T03:49:57;41.67;;;15.65;;
40339;SDS011;26044;50.864;20.658;2022-10-26T03:52:27;43.00;;;15.15;;
40339;SDS011;26044;50.864;20.658;2022-10-26T03:55:04;39.65;;;15.68;;
40339;SDS011;26044;50.864;20.658;2022-10-26T03:57:43;41.97;;;16.00;;
40339;SDS011;26044;50.864;20.658;2022-10-26T04:00:16;43.88;;;16.35;;
40339;SDS011;26044;50.864;20.658;2022-10-26T04:02:45;45.55;;;17.85;;
40339;SDS011;26044;50.864;20.658;2022-10-26T04:05:17;40.78;;;16.98;;
40339;SDS011;26044;50.864;20.658;2022-10-26T04:07:50;45.30;;;17.63;;
40339;SDS011;26044;50.864;20.658;2022-10-26T04:10:21;46.13;;;18.42;;
40339;SDS011;26044;50.864;20.658;2022-10-26T04:12:48;47.08;;;18.90;;
40339;SDS011;26044;50.864;20.658;2022-10-26T04:15:24;45.72;;;17.75;;
40339;SDS011;26044;50.864;20.658;2022-10-26T04:17:58;50.38;;;19.13;;
40339;SDS011;26044;50.864;20.658;2022-10-26T04:20:27;62.55;;;19.88;;
40339;SDS011;26044;50.864;20.658;2022-10-26T04:23:10;51.17;;;19.52;;
40339;SDS011;26044;50.864;20.658;2022-10-26T04:25:37;48.60;;;18.45;;
40339;SDS011;26044;50.864;20.658;2022-10-26T04:28:05;42.88;;;19.05;;
40339;SDS011;26044;50.864;20.658;2022-10-26T04:30:34;40.92;;;18.85;;
40339;SDS011;26044;50.864;20.658;2022-10-26T04:33:05;45.88;;;18.58;;
40339;SDS011;26044;50.864;20.658;2022-10-26T04:35:39;47.28;;;20.40;;
40339;SDS011;26044;50.864;20.658;2022-10-26T04:38:06;53.25;;;21.98;;
40339;SDS011;26044;50.864;20.658;2022-10-26T04:40:39;63.13;;;22.63;;
40339;SDS011;26044;50.864;20.658;2022-10-26T04:43:06;48.60;;;21.58;;
40339;SDS011;26044;50.864;20.658;2022-10-26T04:45:33;50.72;;;21.70;;
40339;SDS011;26044;50.864;20.658;2022-10-26T04:48:07;51.47;;;20.92;;
40339;SDS011;26044;50.864;20.658;2022-10-26T04:50:40;54.38;;;20.42;;
40339;SDS011;26044;50.864;20.658;2022-10-26T04:53:07;45.75;;;20.10;;
40339;SDS011;26044;50.864;20.658;2022-10-26T04:55:36;47.65;;;20.80;;
40339;SDS011;26044;50.864;20.658;2022-10-26T04:58:09;50.72;;;21.48;;
40339;SDS011;26044;50.864;20.658;2022-10-26T05:00:43;51.53;;;21.73;;
40339;SDS011;26044;50.864;20.658;2022-10-26T05:03:28;50.45;;;20.83;;
40339;SDS011;26044;50.864;20.658;2022-10-26T05:05:57;46.97;;;20.10;;
40339;SDS011;26044;50.864;20.658;2022-10-26T05:08:27;47.92;;;21.08;;
40339;SDS011;26044;50.864;20.658;2022-10-26T05:10:56;48.60;;;21.65;;
40339;SDS011;26044;50.864;20.658;2022-10-26T05:13:26;46.83;;;19.02;;
40339;SDS011;26044;50.864;20.658;2022-10-26T05:15:56;60.25;;;23.35;;
40339;SDS011;26044;50.864;20.658;2022-10-26T05:18:32;53.05;;;20.73;;
40339;SDS011;26044;50.864;20.658;2022-10-26T05:20:59;60.58;;;25.10;;
40339;SDS011;26044;50.864;20.658;2022-10-26T05:23:26;64.82;;;24.80;;
40339;SDS011;26044;50.864;20.658;2022-10-26T05:25:54;58.85;;;23.83;;
40339;SDS011;26044;50.864;20.658;2022-10-26T05:28:24;51.97;;;22.90;;
40339;SDS011;26044;50.864;20.658;2022-10-26T05:30:57;53.33;;;22.35;;
40339;SDS011;26044;50.864;20.658;2022-10-26T05:33:40;62.33;;;26.77;;
40339;SDS011;26044;50.864;20.658;2022-10-26T05:36:07;61.63;;;26.52;;
40339;SDS011;26044;50.864;20.658;2022-10-26T05:38:37;74.60;;;30.70;;
40339;SDS011;26044;50.864;20.658;2022-10-26T05:41:27;71.90;;;27.92;;
40339;SDS011;26044;50.864;20.658;2022-10-26T05:43:55;81.35;;;27.27;;
40339;SDS011;26044;50.864;20.658;2022-10-26T05:46:27;76.50;;;26.55;;
40339;SDS011;26044;50.864;20.658;2022-10-26T05:48:54;75.38;;;28.67;;
40339;SDS011;26044;50.864;20.658;2022-10-26T05:51:21;58.42;;;23.70;;
40339;SDS011;26044;50.864;20.658;2022-10-26T05:54:00;74.72;;;24.83;;
40339;SDS011;26044;50.864;20.658;2022-10-26T05:56:38;83.93;;;24.40;;
40339;SDS011;26044;50.864;20.658;2022-10-26T05:59:12;100.05;;;30.45;;
40339;SDS011;26044;50.864;20.658;2022-10-26T06:04:28;97.18;;;27.67;;
40339;SDS011;26044;50.864;20.658;2022-10-26T06:06:56;86.40;;;30.45;;
40339;SDS011;26044;50.864;20.658;2022-10-26T06:09:39;87.15;;;30.98;;
40339;SDS011;26044;50.864;20.658;2022-10-26T06:12:07;93.15;;;30.90;;
40339;SDS011;26044;50.864;20.658;2022-10-26T06:14:34;99.30;;;32.75;;
40339;SDS011;26044;50.864;20.658;2022-10-26T06:28:23;95.95;;;31.45;;
40339;SDS011;26044;50.864;20.658;2022-10-26T06:30:57;83.20;;;30.45;;
40339;SDS011;26044;50.864;20.658;2022-10-26T06:33:25;85.95;;;29.05;;
40339;SDS011;26044;50.864;20.658;2022-10-26T06:36:04;78.03;;;26.48;;
40339;SDS011;26044;50.864;20.658;2022-10-26T06:38:34;71.05;;;25.48;;
40339;SDS011;26044;50.864;20.658;2022-10-26T06:41:13;72.03;;;25.00;;
40339;SDS011;26044;50.864;20.658;2022-10-26T06:43:57;64.80;;;24.30;;
40339;SDS011;26044;50.864;20.658;2022-10-26T06:46:29;58.63;;;19.88;;
40339;SDS011;26044;50.864;20.658;2022-10-26T06:49:10;49.38;;;18.80;;
40339;SDS011;26044;50.864;20.658;2022-10-26T06:51:45;56.10;;;19.02;;
40339;SDS011;26044;50.864;20.658;2022-10-26T06:54:18;57.47;;;19.80;;
40339;SDS011;26044;50.864;20.658;2022-10-26T06:56:48;46.70;;;18.80;;
40339;SDS011;26044;50.864;20.658;2022-10-26T06:59:21;52.60;;;20.15;;
40339;SDS011;26044;50.864;20.658;2022-10-26T07:01:53;54.90;;;19.55;;
40339;SDS011;26044;50.864;20.658;2022-10-26T07:04:31;70.88;;;23.05;;
40339;SDS011;26044;50.864;20.658;2022-10-26T07:07:00;73.05;;;25.83;;
40339;SDS011;26044;50.864;20.658;2022-10-26T07:09:29;67.55;;;26.13;;
40339;SDS011;26044;50.864;20.658;2022-10-26T07:11:57;61.75;;;24.58;;
40339;SDS011;26044;50.864;20.658;2022-10-26T07:14:27;61.93;;;23.90;;
40339;SDS011;26044;50.864;20.658;2022-10-26T07:16:56;61.72;;;24.02;;
40339;SDS011;26044;50.864;20.658;2022-10-26T07:19:25;62.25;;;24.30;;
40339;SDS011;26044;50.864;20.658;2022-10-26T07:21:53;66.10;;;24.20;;
40339;SDS011;26044;50.864;20.658;2022-10-26T07:24:22;69.05;;;25.83;;
40339;SDS011;26044;50.864;20.658;2022-10-26T07:26:49;58.35;;;21.27;;
40339;SDS011;26044;50.864;20.658;2022-10-26T07:29:16;64.80;;;25.35;;
40339;SDS011;26044;50.864;20.658;2022-10-26T07:31:43;71.80;;;23.52;;
40339;SDS011;26044;50.864;20.658;2022-10-26T07:34:11;55.47;;;21.85;;
40339;SDS011;26044;50.864;20.658;2022-10-26T07:36:38;63.47;;;24.65;;
40339;SDS011;26044;50.864;20.658;2022-10-26T07:39:08;46.05;;;19.27;;
40339;SDS011;26044;50.864;20.658;2022-10-26T07:41:37;60.13;;;23.98;;
40339;SDS011;26044;50.864;20.658;2022-10-26T07:44:04;65.03;;;21.58;;
40339;SDS011;26044;50.864;20.658;2022-10-26T07:46:31;46.40;;;19.52;;
40339;SDS011;26044;50.864;20.658;2022-10-26T07:49:01;61.80;;;23.73;;
40339;SDS011;26044;50.864;20.658;2022-10-26T07:51:36;59.65;;;23.83;;
40339;SDS011;26044;50.864;20.658;2022-10-26T07:54:03;55.88;;;23.02;;
40339;SDS011;26044;50.864;20.658;2022-10-26T07:56:30;50.88;;;20.80;;
40339;SDS011;26044;50.864;20.658;2022-10-26T08:01:28;58.55;;;24.10;;
40339;SDS011;26044;50.864;20.658;2022-10-26T08:03:55;52.17;;;19.40;;
40339;SDS011;26044;50.864;20.658;2022-10-26T08:06:23;46.60;;;18.75;;
40339;SDS011;26044;50.864;20.658;2022-10-26T08:08:50;51.67;;;21.70;;
40339;SDS011;26044;50.864;20.658;2022-10-26T08:11:17;56.67;;;21.02;;
40339;SDS011;26044;50.864;20.658;2022-10-26T08:13:44;57.10;;;22.27;;
40339;SDS011;26044;50.864;20.658;2022-10-26T08:16:12;55.08;;;23.00;;
40339;SDS011;26044;50.864;20.658;2022-10-26T08:18:39;48.80;;;21.08;;
40339;SDS011;26044;50.864;20.658;2022-10-26T08:21:10;58.47;;;23.88;;
40339;SDS011;26044;50.864;20.658;2022-10-26T08:23:43;67.20;;;29.13;;
40339;SDS011;26044;50.864;20.658;2022-10-26T08:26:12;63.92;;;25.40;;
40339;SDS011;26044;50.864;20.658;2022-10-26T08:28:39;51.60;;;22.05;;
40339;SDS011;26044;50.864;20.658;2022-10-26T08:31:07;64.72;;;25.08;;
40339;SDS011;26044;50.864;20.658;2022-10-26T08:33:36;60.92;;;25.20;;
40339;SDS011;26044;50.864;20.658;2022-10-26T08:36:08;56.42;;;24.77;;
40339;SDS011;26044;50.864;20.658;2022-10-26T08:38:35;56.60;;;22.42;;
40339;SDS011;26044;50.864;20.658;2022-10-26T08:41:06;57.22;;;21.33;;
40339;SDS011;26044;50.864;20.658;2022-10-26T08:43:38;51.38;;;22.67;;
40339;SDS011;26044;50.864;20.658;2022-10-26T08:46:08;64.22;;;23.85;;
40339;SDS011;26044;50.864;20.658;2022-10-26T08:53:53;64.72;;;25.95;;
40339;SDS011;26044;50.864;20.658;2022-10-26T08:56:25;62.00;;;26.85;;
40339;SDS011;26044;50.864;20.658;2022-10-26T08:58:54;64.97;;;27.73;;
40339;SDS011;26044;50.864;20.658;2022-10-26T09:01:22;68.55;;;29.55;;
40339;SDS011;26044;50.864;20.658;2022-10-26T09:03:49;76.40;;;32.35;;
40339;SDS011;26044;50.864;20.658;2022-10-26T09:09:06;70.63;;;31.08;;
40339;SDS011;26044;50.864;20.658;2022-10-26T09:14:41;73.32;;;32.28;;
40339;SDS011;26044;50.864;20.658;2022-10-26T09:25:02;71.15;;;27.60;;
40339;SDS011;26044;50.864;20.658;2022-10-26T09:27:40;67.63;;;27.50;;
40339;SDS011;26044;50.864;20.658;2022-10-26T09:30:14;65.60;;;30.05;;
40339;SDS011;26044;50.864;20.658;2022-10-26T09:32:55;71.50;;;31.30;;
40339;SDS011;26044;50.864;20.658;2022-10-26T09:35:39;58.97;;;28.60;;
40339;SDS011;26044;50.864;20.658;2022-10-26T09:38:13;73.18;;;30.20;;
40339;SDS011;26044;50.864;20.658;2022-10-26T09:43:16;61.20;;;27.70;;
40339;SDS011;26044;50.864;20.658;2022-10-26T09:45:52;51.10;;;24.77;;
40339;SDS011;26044;50.864;20.658;2022-10-26T09:51:17;56.30;;;26.92;;
40339;SDS011;26044;50.864;20.658;2022-10-26T09:53:56;57.50;;;25.75;;
40339;SDS011;26044;50.864;20.658;2022-10-26T09:56:26;56.07;;;25.63;;
40339;SDS011;26044;50.864;20.658;2022-10-26T09:58:59;52.17;;;24.02;;
40339;SDS011;26044;50.864;20.658;2022-10-26T10:01:32;54.03;;;24.80;;
40339;SDS011;26044;50.864;20.658;2022-10-26T10:04:08;50.25;;;23.60;;
40339;SDS011;26044;50.864;20.658;2022-10-26T10:06:43;55.20;;;24.02;;
40339;SDS011;26044;50.864;20.658;2022-10-26T10:09:17;52.17;;;26.25;;
40339;SDS011;26044;50.864;20.658;2022-10-26T10:12:05;53.55;;;27.27;;
40339;SDS011;26044;50.864;20.658;2022-10-26T10:14:38;52.58;;;26.98;;
40339;SDS011;26044;50.864;20.658;2022-10-26T10:17:26;51.92;;;24.40;;
40339;SDS011;26044;50.864;20.658;2022-10-26T10:19:54;45.28;;;22.10;;
40339;SDS011;26044;50.864;20.658;2022-10-26T10:22:32;36.08;;;16.85;;
40339;SDS011;26044;50.864;20.658;2022-10-26T10:24:59;36.53;;;16.50;;
40339;SDS011;26044;50.864;20.658;2022-10-26T10:27:27;30.95;;;15.27;;
40339;SDS011;26044;50.864;20.658;2022-10-26T10:30:20;33.38;;;15.20;;
40339;SDS011;26044;50.864;20.658;2022-10-26T10:33:02;36.90;;;14.98;;
40339;SDS011;26044;50.864;20.658;2022-10-26T10:35:30;27.33;;;13.43;;
40339;SDS011;26044;50.864;20.658;2022-10-26T10:37:57;31.23;;;13.90;;
40339;SDS011;26044;50.864;20.658;2022-10-26T10:40:27;31.35;;;14.13;;
40339;SDS011;26044;50.864;20.658;2022-10-26T10:43:05;31.08;;;14.95;;
40339;SDS011;26044;50.864;20.658;2022-10-26T10:45:35;31.15;;;14.20;;
40339;SDS011;26044;50.864;20.658;2022-10-26T10:48:04;26.75;;;13.00;;
40339;SDS011;26044;50.864;20.658;2022-10-26T10:50:47;31.17;;;13.52;;
40339;SDS011;26044;50.864;20.658;2022-10-26T10:55:54;32.35;;;14.93;;
40339;SDS011;26044;50.864;20.658;2022-10-26T10:58:40;31.15;;;14.50;;
40339;SDS011;26044;50.864;20.658;2022-10-26T11:01:14;30.27;;;15.10;;
40339;SDS011;26044;50.864;20.658;2022-10-26T11:06:32;30.55;;;14.75;;
40339;SDS011;26044;50.864;20.658;2022-10-26T11:11:34;33.17;;;14.90;;
40339;SDS011;26044;50.864;20.658;2022-10-26T11:14:11;26.05;;;11.77;;
40339;SDS011;26044;50.864;20.658;2022-10-26T11:16:43;26.60;;;12.90;;
40339;SDS011;26044;50.864;20.658;2022-10-26T11:21:55;23.08;;;11.18;;
40339;SDS011;26044;50.864;20.658;2022-10-26T11:32:27;25.40;;;11.15;;
40339;SDS011;26044;50.864;20.658;2022-10-26T11:35:15;28.80;;;11.10;;
40339;SDS011;26044;50.864;20.658;2022-10-26T11:37:49;22.73;;;11.07;;
40339;SDS011;26044;50.864;20.658;2022-10-26T11:40:21;23.95;;;10.00;;
40339;SDS011;26044;50.864;20.658;2022-10-26T11:42:56;21.98;;;7.65;;
40339;SDS011;26044;50.864;20.658;2022-10-26T11:45:27;23.35;;;8.43;;
40339;SDS011;26044;50.864;20.658;2022-10-26T11:48:08;25.25;;;9.63;;
40339;SDS011;26044;50.864;20.658;2022-10-26T11:50:40;24.25;;;9.70;;
40339;SDS011;26044;50.864;20.658;2022-10-26T11:53:14;26.13;;;11.15;;
40339;SDS011;26044;50.864;20.658;2022-10-26T11:55:45;27.08;;;10.88;;
40339;SDS011;26044;50.864;20.658;2022-10-26T11:58:13;25.63;;;11.68;;
40339;SDS011;26044;50.864;20.658;2022-10-26T12:00:42;24.52;;;10.63;;
40339;SDS011;26044;50.864;20.658;2022-10-26T12:03:11;24.25;;;10.48;;
40339;SDS011;26044;50.864;20.658;2022-10-26T12:05:46;23.65;;;10.05;;
40339;SDS011;26044;50.864;20.658;2022-10-26T12:08:23;23.15;;;9.20;;
40339;SDS011;26044;50.864;20.658;2022-10-26T12:16:15;22.65;;;8.85;;
40339;SDS011;26044;50.864;20.658;2022-10-26T12:18:55;22.85;;;9.60;;
40339;SDS011;26044;50.864;20.658;2022-10-26T12:21:27;21.33;;;7.93;;
40339;SDS011;26044;50.864;20.658;2022-10-26T12:24:03;20.55;;;6.68;;
40339;SDS011;26044;50.864;20.658;2022-10-26T12:26:52;20.38;;;7.20;;
40339;SDS011;26044;50.864;20.658;2022-10-26T12:31:52;14.55;;;5.57;;
40339;SDS011;26044;50.864;20.658;2022-10-26T12:34:23;16.55;;;5.30;;
40339;SDS011;26044;50.864;20.658;2022-10-26T12:41:54;16.38;;;5.03;;
40339;SDS011;26044;50.864;20.658;2022-10-26T12:44:30;14.40;;;5.00;;
40339;SDS011;26044;50.864;20.658;2022-10-26T12:46:57;18.30;;;5.22;;
40339;SDS011;26044;50.864;20.658;2022-10-26T12:52:20;12.38;;;4.38;;
40339;SDS011;26044;50.864;20.658;2022-10-26T12:54:53;13.75;;;4.10;;
40339;SDS011;26044;50.864;20.658;2022-10-26T12:57:28;10.60;;;4.22;;
40339;SDS011;26044;50.864;20.658;2022-10-26T13:00:01;14.93;;;4.60;;
40339;SDS011;26044;50.864;20.658;2022-10-26T13:08:07;16.40;;;5.78;;
40339;SDS011;26044;50.864;20.658;2022-10-26T13:10:35;16.33;;;6.15;;
40339;SDS011;26044;50.864;20.658;2022-10-26T13:13:04;20.50;;;6.00;;
40339;SDS011;26044;50.864;20.658;2022-10-26T13:15:38;16.05;;;5.93;;
40339;SDS011;26044;50.864;20.658;2022-10-26T13:18:11;17.00;;;6.15;;
40339;SDS011;26044;50.864;20.658;2022-10-26T13:23:29;13.50;;;5.07;;
40339;SDS011;26044;50.864;20.658;2022-10-26T13:26:16;16.43;;;5.73;;
40339;SDS011;26044;50.864;20.658;2022-10-26T13:31:16;14.25;;;4.93;;
40339;SDS011;26044;50.864;20.658;2022-10-26T13:33:47;16.20;;;5.68;;
40339;SDS011;26044;50.864;20.658;2022-10-26T13:36:20;17.85;;;5.32;;
40339;SDS011;26044;50.864;20.658;2022-10-26T13:38:51;16.27;;;5.57;;
40339;SDS011;26044;50.864;20.658;2022-10-26T13:41:32;15.05;;;5.20;;
40339;SDS011;26044;50.864;20.658;2022-10-26T13:44:02;15.95;;;5.22;;
40339;SDS011;26044;50.864;20.658;2022-10-26T13:46:32;17.05;;;5.25;;
40339;SDS011;26044;50.864;20.658;2022-10-26T13:49:07;17.90;;;5.50;;
40339;SDS011;26044;50.864;20.658;2022-10-26T13:51:42;14.20;;;4.32;;
40339;SDS011;26044;50.864;20.658;2022-10-26T13:54:15;14.15;;;4.80;;
40339;SDS011;26044;50.864;20.658;2022-10-26T13:56:55;18.38;;;4.50;;
40339;SDS011;26044;50.864;20.658;2022-10-26T13:59:25;16.13;;;4.53;;
40339;SDS011;26044;50.864;20.658;2022-10-26T14:02:07;15.48;;;4.22;;
40339;SDS011;26044;50.864;20.658;2022-10-26T14:04:43;14.65;;;4.95;;
40339;SDS011;26044;50.864;20.658;2022-10-26T14:07:15;11.32;;;4.95;;
40339;SDS011;26044;50.864;20.658;2022-10-26T14:09:49;13.95;;;4.40;;
40339;SDS011;26044;50.864;20.658;2022-10-26T14:12:16;16.13;;;5.03;;
40339;SDS011;26044;50.864;20.658;2022-10-26T14:14:43;20.30;;;5.70;;
40339;SDS011;26044;50.864;20.658;2022-10-26T14:17:20;15.07;;;5.03;;
40339;SDS011;26044;50.864;20.658;2022-10-26T14:19:48;11.55;;;3.90;;
40339;SDS011;26044;50.864;20.658;2022-10-26T14:22:17;13.45;;;4.03;;
40339;SDS011;26044;50.864;20.658;2022-10-26T14:24:52;16.00;;;4.53;;
40339;SDS011;26044;50.864;20.658;2022-10-26T14:27:22;15.63;;;5.03;;
40339;SDS011;26044;50.864;20.658;2022-10-26T14:33:32;12.48;;;4.53;;
40339;SDS011;26044;50.864;20.658;2022-10-26T14:40:03;13.43;;;3.63;;
40339;SDS011;26044;50.864;20.658;2022-10-26T14:42:50;15.18;;;4.38;;
40339;SDS011;26044;50.864;20.658;2022-10-26T14:52:52;13.73;;;4.75;;
40339;SDS011;26044;50.864;20.658;2022-10-26T14:56:04;10.20;;;4.68;;
40339;SDS011;26044;50.864;20.658;2022-10-26T14:59:21;14.05;;;4.55;;
40339;SDS011;26044;50.864;20.658;2022-10-26T15:02:29;13.48;;;4.65;;
40339;SDS011;26044;50.864;20.658;2022-10-26T15:05:14;12.43;;;4.45;;
40339;SDS011;26044;50.864;20.658;2022-10-26T15:07:49;14.23;;;4.63;;
40339;SDS011;26044;50.864;20.658;2022-10-26T15:13:33;19.20;;;6.45;;
40339;SDS011;26044;50.864;20.658;2022-10-26T15:16:26;24.48;;;7.32;;
40339;SDS011;26044;50.864;20.658;2022-10-26T15:19:06;27.75;;;9.50;;
40339;SDS011;26044;50.864;20.658;2022-10-26T15:21:43;33.20;;;12.45;;
40339;SDS011;26044;50.864;20.658;2022-10-26T15:27:12;48.93;;;21.53;;
40339;SDS011;26044;50.864;20.658;2022-10-26T15:29:45;61.08;;;26.33;;
40339;SDS011;26044;50.864;20.658;2022-10-26T15:32:30;71.15;;;33.53;;
40339;SDS011;26044;50.864;20.658;2022-10-26T15:37:51;109.53;;;48.95;;
40339;SDS011;26044;50.864;20.658;2022-10-26T15:40:22;110.72;;;55.60;;
40339;SDS011;26044;50.864;20.658;2022-10-26T15:43:29;107.75;;;53.70;;
40339;SDS011;26044;50.864;20.658;2022-10-26T16:06:00;46.50;;;21.45;;
40339;SDS011;26044;50.864;20.658;2022-10-26T16:42:14;46.17;;;23.00;;
40339;SDS011;26044;50.864;20.658;2022-10-26T16:49:16;42.92;;;22.95;;
40339;SDS011;26044;50.864;20.658;2022-10-26T16:59:23;41.00;;;19.65;;
40339;SDS011;26044;50.864;20.658;2022-10-26T17:23:01;49.78;;;25.33;;
40339;SDS011;26044;50.864;20.658;2022-10-26T17:25:34;54.42;;;28.30;;
40339;SDS011;26044;50.864;20.658;2022-10-26T17:28:06;56.65;;;27.50;;
40339;SDS011;26044;50.864;20.658;2022-10-26T17:34:01;53.30;;;29.27;;
40339;SDS011;26044;50.864;20.658;2022-10-26T17:36:28;59.75;;;33.30;;
40339;SDS011;26044;50.864;20.658;2022-10-26T17:39:13;59.55;;;33.08;;
40339;SDS011;26044;50.864;20.658;2022-10-26T17:42:25;65.65;;;38.10;;
40339;SDS011;26044;50.864;20.658;2022-10-26T17:45:02;72.13;;;39.30;;
40339;SDS011;26044;50.864;20.658;2022-10-26T17:50:10;70.57;;;40.13;;
40339;SDS011;26044;50.864;20.658;2022-10-26T17:52:47;75.97;;;40.95;;
40339;SDS011;26044;50.864;20.658;2022-10-26T17:55:46;80.50;;;43.45;;
40339;SDS011;26044;50.864;20.658;2022-10-26T18:01:42;75.30;;;41.47;;
40339;SDS011;26044;50.864;20.658;2022-10-26T18:04:20;74.88;;;44.25;;
40339;SDS011;26044;50.864;20.658;2022-10-26T18:20:34;77.57;;;44.63;;
40339;SDS011;26044;50.864;20.658;2022-10-26T18:26:58;100.38;;;54.45;;
40339;SDS011;26044;50.864;20.658;2022-10-26T18:47:26;98.55;;;50.78;;
40339;SDS011;26044;50.864;20.658;2022-10-26T18:54:14;95.20;;;52.25;;
40339;SDS011;26044;50.864;20.658;2022-10-26T18:57:16;93.32;;;52.58;;
40339;SDS011;26044;50.864;20.658;2022-10-26T19:07:08;93.40;;;57.17;;
40339;SDS011;26044;50.864;20.658;2022-10-26T19:11:13;94.00;;;53.85;;
40339;SDS011;26044;50.864;20.658;2022-10-26T19:14:19;96.00;;;58.00;;
40339;SDS011;26044;50.864;20.658;2022-10-26T19:24:12;108.65;;;62.58;;
40339;SDS011;26044;50.864;20.658;2022-10-26T19:27:14;117.60;;;66.90;;
40339;SDS011;26044;50.864;20.658;2022-10-26T19:30:07;109.70;;;62.58;;
40339;SDS011;26044;50.864;20.658;2022-10-26T19:32:38;119.50;;;70.97;;
40339;SDS011;26044;50.864;20.658;2022-10-26T19:35:34;117.53;;;69.90;;
40339;SDS011;26044;50.864;20.658;2022-10-26T19:41:28;110.82;;;66.35;;
40339;SDS011;26044;50.864;20.658;2022-10-26T19:44:15;109.15;;;67.10;;